createdAt,value
2022-10-13T00:01:13.266Z,13.59
2022-10-13T00:03:41.865Z,13.61
2022-10-13T00:06:11.777Z,14.58
2022-10-13T00:08:40.306Z,14.26
2022-10-13T00:11:24.672Z,13.63
2022-10-13T00:13:54.918Z,13.99
2022-10-13T00:16:23.206Z,14.12
2022-10-13T00:18:51.038Z,14.34
2022-10-13T00:21:23.501Z,13.70
2022-10-13T00:23:51.890Z,13.45
2022-10-13T00:26:24.957Z,13.48
2022-10-13T00:28:53.218Z,13.93
2022-10-13T00:31:25.847Z,13.71
2022-10-13T00:33:53.042Z,13.79
2022-10-13T00:36:23.287Z,13.39
2022-10-13T00:38:52.187Z,12.86
2022-10-13T00:41:20.572Z,12.91
2022-10-13T00:43:57.867Z,13.60
2022-10-13T00:46:31.992Z,13.35
2022-10-13T00:49:11.705Z,12.85
2022-10-13T00:51:46.524Z,12.37
2022-10-13T00:54:20.561Z,13.16
2022-10-13T00:56:48.419Z,13.47
2022-10-13T00:59:22.861Z,13.44
2022-10-13T01:01:51.592Z,13.46
2022-10-13T01:04:22.654Z,12.14
2022-10-13T01:06:50.360Z,12.42
2022-10-13T01:09:17.259Z,13.00
2022-10-13T01:12:35.025Z,13.50
2022-10-13T01:15:22.818Z,13.07
2022-10-13T01:18:20.655Z,12.37
2022-10-13T01:21:12.430Z,13.31
2022-10-13T01:24:34.349Z,12.64
2022-10-13T01:27:48.756Z,11.95
2022-10-13T01:30:21.775Z,12.04
2022-10-13T01:33:21.188Z,12.15
2022-10-13T01:36:18.800Z,12.74
2022-10-13T01:39:14.250Z,12.54
2022-10-13T01:41:50.073Z,12.55
2022-10-13T01:44:29.743Z,12.22
2022-10-13T01:46:57.434Z,12.38
2022-10-13T01:49:34.312Z,12.15
2022-10-13T01:52:07.925Z,12.43
2022-10-13T01:54:35.213Z,12.34
2022-10-13T01:57:02.547Z,12.40
2022-10-13T01:59:33.842Z,12.85
2022-10-13T02:02:25.782Z,12.92
2022-10-13T02:05:04.212Z,11.83
2022-10-13T02:07:45.908Z,11.40
2022-10-13T02:10:36.314Z,11.76
2022-10-13T02:13:07.278Z,11.91
2022-10-13T02:15:43.526Z,11.78
2022-10-13T02:18:15.785Z,11.64
2022-10-13T02:20:45.825Z,11.45
2022-10-13T02:23:16.603Z,11.63
2022-10-13T02:25:44.553Z,12.02
2022-10-13T02:28:14.466Z,12.27
2022-10-13T02:30:45.991Z,11.86
2022-10-13T02:33:14.777Z,11.87
2022-10-13T02:35:43.037Z,12.46
2022-10-13T02:38:28.974Z,12.17
2022-10-13T02:40:56.132Z,11.84
2022-10-13T02:43:23.577Z,11.89
2022-10-13T02:45:50.556Z,12.10
2022-10-13T02:48:17.518Z,11.94
2022-10-13T02:50:44.808Z,11.42
2022-10-13T02:53:11.779Z,12.32
2022-10-13T02:55:39.135Z,12.07
2022-10-13T02:58:06.083Z,11.47
2022-10-13T03:00:33.428Z,11.29
2022-10-13T03:03:00.475Z,11.37
2022-10-13T03:05:27.819Z,11.20
2022-10-13T03:07:54.746Z,11.46
2022-10-13T03:10:21.902Z,11.14
2022-10-13T03:12:51.130Z,11.47
2022-10-13T03:15:18.261Z,11.16
2022-10-13T03:17:48.551Z,11.29
2022-10-13T03:20:16.168Z,11.80
2022-10-13T03:22:46.067Z,11.71
2022-10-13T03:25:16.724Z,11.51
2022-10-13T03:27:43.746Z,11.49
2022-10-13T03:30:11.621Z,12.19
2022-10-13T03:32:40.736Z,11.98
2022-10-13T03:35:08.581Z,12.07
2022-10-13T03:37:35.781Z,12.27
2022-10-13T03:40:02.832Z,12.22
2022-10-13T03:42:30.020Z,11.67
2022-10-13T03:44:56.973Z,11.66
2022-10-13T03:47:24.345Z,11.45
2022-10-13T03:49:53.420Z,11.78
2022-10-13T03:52:21.747Z,11.67
2022-10-13T03:54:48.956Z,12.40
2022-10-13T03:57:16.111Z,12.32
2022-10-13T03:59:43.639Z,12.46
2022-10-13T04:02:10.631Z,12.67
2022-10-13T04:04:39.058Z,12.49
2022-10-13T04:07:08.432Z,12.24
2022-10-13T04:09:35.612Z,12.08
2022-10-13T04:12:02.937Z,11.42
2022-10-13T04:14:30.064Z,11.82
2022-10-13T04:17:02.516Z,12.52
2022-10-13T04:19:29.447Z,12.71
2022-10-13T04:21:57.005Z,12.69
2022-10-13T04:24:24.027Z,12.51
2022-10-13T04:26:51.342Z,12.50
2022-10-13T04:29:18.393Z,12.66
2022-10-13T04:31:47.308Z,12.44
2022-10-13T04:34:14.287Z,12.33
2022-10-13T04:36:41.408Z,12.17
2022-10-13T04:39:08.467Z,11.94
2022-10-13T04:41:35.499Z,11.80
2022-10-13T04:44:02.614Z,11.64
2022-10-13T04:46:30.928Z,11.56
2022-10-13T04:48:58.047Z,12.05
2022-10-13T04:51:33.077Z,12.32
2022-10-13T04:54:03.421Z,12.42
2022-10-13T04:56:30.558Z,11.85
2022-10-13T04:59:05.193Z,12.32
2022-10-13T05:01:33.539Z,12.69
2022-10-13T05:04:04.358Z,12.92
2022-10-13T05:06:58.778Z,12.51
2022-10-13T05:09:26.304Z,12.57
2022-10-13T05:11:55.315Z,11.65
2022-10-13T05:14:22.935Z,12.17
2022-10-13T05:16:50.295Z,11.80
2022-10-13T05:19:17.312Z,11.54
2022-10-13T05:21:44.806Z,11.39
2022-10-13T05:24:13.671Z,12.10
2022-10-13T05:26:42.051Z,12.75
2022-10-13T05:29:09.459Z,12.75
2022-10-13T05:31:37.151Z,12.72
2022-10-13T05:34:04.172Z,12.66
2022-10-13T05:36:34.790Z,12.81
2022-10-13T05:39:06.053Z,11.87
2022-10-13T05:41:33.045Z,12.03
2022-10-13T05:44:04.970Z,11.71
2022-10-13T05:46:32.499Z,11.97
2022-10-13T05:48:59.489Z,12.61
2022-10-13T05:51:39.475Z,12.35
2022-10-13T05:54:43.486Z,12.79
2022-10-13T05:57:20.519Z,12.86
2022-10-13T06:00:09.990Z,12.68
2022-10-13T06:03:01.910Z,12.70
2022-10-13T06:05:32.074Z,12.36
2022-10-13T06:07:59.807Z,12.71
2022-10-13T06:10:27.315Z,12.77
2022-10-13T06:12:54.285Z,12.92
2022-10-13T06:15:25.643Z,12.72
2022-10-13T06:17:56.514Z,12.80
2022-10-13T06:20:24.017Z,12.82
2022-10-13T06:22:51.056Z,12.95
2022-10-13T06:25:18.215Z,13.18
2022-10-13T06:27:45.164Z,13.22
2022-10-13T06:30:12.467Z,13.33
2022-10-13T06:32:39.421Z,13.28
2022-10-13T06:35:07.580Z,13.31
2022-10-13T06:37:34.536Z,13.26
2022-10-13T06:40:01.666Z,13.31
2022-10-13T06:42:31.767Z,13.20
2022-10-13T06:45:22.207Z,13.24
2022-10-13T06:47:49.200Z,13.27
2022-10-13T06:50:16.580Z,12.61
2022-10-13T06:52:44.028Z,13.10
2022-10-13T06:55:11.433Z,13.39
2022-10-13T06:57:38.520Z,13.58
2022-10-13T07:00:09.564Z,13.52
2022-10-13T07:02:37.723Z,13.48
2022-10-13T07:05:05.612Z,13.61
2022-10-13T07:07:32.577Z,13.82
2022-10-13T07:09:59.941Z,13.82
2022-10-13T07:12:27.187Z,13.89
2022-10-13T07:14:54.479Z,13.50
2022-10-13T07:17:22.052Z,13.59
2022-10-13T07:19:49.579Z,13.78
2022-10-13T07:22:16.553Z,13.99
2022-10-13T07:24:43.966Z,14.09
2022-10-13T07:27:10.956Z,14.14
2022-10-13T07:29:38.258Z,14.05
2022-10-13T07:32:06.129Z,14.10
2022-10-13T07:34:33.260Z,14.33
2022-10-13T07:37:00.254Z,14.52
2022-10-13T07:39:27.388Z,14.68
2022-10-13T07:41:54.346Z,14.80
2022-10-13T07:44:21.577Z,14.86
2022-10-13T07:46:48.525Z,14.55
2022-10-13T07:49:16.399Z,14.94
2022-10-13T07:51:44.410Z,14.77
2022-10-13T07:54:11.881Z,14.63
2022-10-13T07:56:39.631Z,14.40
2022-10-13T07:59:07.614Z,14.62
2022-10-13T08:01:34.676Z,14.76
2022-10-13T08:04:01.907Z,14.86
2022-10-13T08:06:29.172Z,15.10
2022-10-13T08:09:00.772Z,14.61
2022-10-13T08:11:28.100Z,14.82
2022-10-13T08:13:56.047Z,14.62
2022-10-13T08:16:23.473Z,15.12
2022-10-13T08:18:50.975Z,14.74
2022-10-13T08:24:12.588Z,14.73
2022-10-13T08:26:39.931Z,14.66
2022-10-13T08:29:21.357Z,14.85
2022-10-13T08:34:23.721Z,14.69
2022-10-13T08:36:54.287Z,15.07
2022-10-13T08:39:24.243Z,15.05
2022-10-13T08:41:51.491Z,15.30
2022-10-13T08:47:56.483Z,15.59
2022-10-13T08:50:27.454Z,15.67
2022-10-13T08:53:26.791Z,15.88
2022-10-13T08:56:19.303Z,15.80
2022-10-13T08:58:48.919Z,16.07
2022-10-13T09:01:19.417Z,16.20
2022-10-13T09:04:28.512Z,16.03
2022-10-13T09:07:06.420Z,16.47
2022-10-13T09:09:33.888Z,16.23
2022-10-13T09:12:01.059Z,16.43
2022-10-13T09:14:36.523Z,16.34
2022-10-13T09:17:20.107Z,16.43
2022-10-13T09:20:15.795Z,16.65
2022-10-13T09:22:43.089Z,16.93
2022-10-13T09:25:22.348Z,16.89
2022-10-13T09:28:00.153Z,16.90
2022-10-13T09:30:35.967Z,16.67
2022-10-13T09:33:21.035Z,16.83
2022-10-13T09:35:57.008Z,17.02
2022-10-13T09:38:26.253Z,17.25
2022-10-13T09:41:10.542Z,17.42
2022-10-13T09:43:59.693Z,17.31
2022-10-13T09:46:53.803Z,17.44
2022-10-13T09:49:41.614Z,17.31
2022-10-13T09:52:21.112Z,17.26
2022-10-13T09:54:54.062Z,17.72
2022-10-13T09:57:32.826Z,17.57
2022-10-13T10:00:27.167Z,17.79
2022-10-13T10:03:11.670Z,18.03
2022-10-13T10:05:44.640Z,17.89
2022-10-13T10:09:01.536Z,17.82
2022-10-13T10:11:39.549Z,18.19
2022-10-13T10:14:36.358Z,17.74
2022-10-13T10:17:48.958Z,18.07
2022-10-13T10:20:56.541Z,18.14
2022-10-13T10:23:49.558Z,18.35
2022-10-13T10:26:55.996Z,18.51
2022-10-13T10:29:49.773Z,18.50
2022-10-13T10:32:54.167Z,18.83
2022-10-13T10:35:50.722Z,18.84
2022-10-13T10:39:05.776Z,19.21
2022-10-13T10:42:03.503Z,18.91
2022-10-13T10:44:36.759Z,18.77
2022-10-13T10:47:25.115Z,18.46
2022-10-13T10:50:01.891Z,18.80
2022-10-13T10:53:09.681Z,18.63
2022-10-13T10:56:25.357Z,19.36
2022-10-13T10:59:40.401Z,19.65
2022-10-13T11:02:07.268Z,19.29
2022-10-13T11:04:48.438Z,19.01
2022-10-13T11:07:45.427Z,19.20
2022-10-13T11:10:21.696Z,19.57
2022-10-13T11:12:52.728Z,19.72
2022-10-13T11:15:44.549Z,19.17
2022-10-13T11:19:05.851Z,19.17
2022-10-13T11:21:58.738Z,19.24
2022-10-13T11:24:38.946Z,19.55
2022-10-13T11:27:11.549Z,19.24
2022-10-13T11:29:44.254Z,19.27
2022-10-13T11:32:34.428Z,19.05
2022-10-13T11:35:09.834Z,19.24
2022-10-13T11:38:13.931Z,19.18
2022-10-13T11:41:07.760Z,19.16
2022-10-13T11:44:32.465Z,19.31
2022-10-13T11:47:49.556Z,19.58
2022-10-13T11:50:33.417Z,19.28
2022-10-13T11:53:22.924Z,19.49
2022-10-13T11:55:58.917Z,19.06
2022-10-13T11:58:33.746Z,19.19
2022-10-13T12:01:13.727Z,19.16
2022-10-13T12:03:46.710Z,19.09
2022-10-13T12:06:34.234Z,19.25
2022-10-13T12:09:19.194Z,19.22
2022-10-13T12:11:47.444Z,19.60
2022-10-13T12:17:29.816Z,19.25
2022-10-13T12:20:00.642Z,19.33
2022-10-13T12:22:29.054Z,19.17
2022-10-13T12:25:07.549Z,18.97
2022-10-13T12:27:48.815Z,19.18
2022-10-13T12:30:38.085Z,19.29
2022-10-13T12:33:26.880Z,19.46
2022-10-13T12:35:54.558Z,19.49
2022-10-13T12:38:23.485Z,19.37
2022-10-13T12:40:53.528Z,19.23
2022-10-13T12:43:25.642Z,19.21
2022-10-13T12:45:52.815Z,19.27
2022-10-13T12:48:37.369Z,19.28
2022-10-13T12:51:21.562Z,19.05
2022-10-13T12:53:49.186Z,19.35
2022-10-13T12:56:31.596Z,19.17
2022-10-13T12:58:59.955Z,19.23
2022-10-13T13:01:32.112Z,19.25
2022-10-13T13:04:16.798Z,18.93
2022-10-13T13:06:59.555Z,19.33
2022-10-13T13:09:35.825Z,19.08
2022-10-13T13:12:09.034Z,19.01
2022-10-13T13:14:42.792Z,19.50
2022-10-13T13:17:33.056Z,19.19
2022-10-13T13:20:20.886Z,19.05
2022-10-13T13:22:48.125Z,19.13
2022-10-13T13:25:15.614Z,18.96
2022-10-13T13:27:42.616Z,18.91
2022-10-13T13:30:16.891Z,19.21
2022-10-13T13:32:43.960Z,18.94
2022-10-13T13:35:11.058Z,18.81
2022-10-13T13:37:58.344Z,18.87
2022-10-13T13:40:27.718Z,19.18
2022-10-13T13:42:55.328Z,19.23
2022-10-13T13:45:25.475Z,19.08
2022-10-13T13:47:59.572Z,19.08
2022-10-13T13:50:34.333Z,19.00
2022-10-13T13:53:02.355Z,18.87
2022-10-13T13:55:30.172Z,19.12
2022-10-13T13:57:57.896Z,19.25
2022-10-13T14:00:25.211Z,19.60
2022-10-13T14:02:57.264Z,19.19
2022-10-13T14:05:24.403Z,19.40
2022-10-13T14:07:58.024Z,19.15
2022-10-13T14:10:26.612Z,19.11
2022-10-13T14:12:53.723Z,19.33
2022-10-13T14:15:23.406Z,18.92
2022-10-13T14:17:54.522Z,18.86
2022-10-13T14:20:22.446Z,18.77
2022-10-13T14:22:49.734Z,18.83
2022-10-13T14:25:16.973Z,18.89
2022-10-13T14:27:45.976Z,18.59
2022-10-13T14:30:14.058Z,18.89
2022-10-13T14:32:41.368Z,18.94
2022-10-13T14:35:08.666Z,18.89
2022-10-13T14:37:36.081Z,18.90
2022-10-13T14:40:03.489Z,18.88
2022-10-13T14:42:31.185Z,18.93
2022-10-13T14:44:58.161Z,18.88
2022-10-13T14:47:25.398Z,18.66
2022-10-13T14:49:52.840Z,18.55
2022-10-13T14:52:19.796Z,18.55
2022-10-13T14:54:47.779Z,18.69
2022-10-13T14:57:16.256Z,18.62
2022-10-13T14:59:44.091Z,18.38
2022-10-13T15:02:13.012Z,18.51
2022-10-13T15:04:51.106Z,18.45
2022-10-13T15:07:18.650Z,18.65
2022-10-13T15:09:53.259Z,18.71
2022-10-13T15:12:28.365Z,18.60
2022-10-13T15:14:55.322Z,18.53
2022-10-13T15:17:22.358Z,18.66
2022-10-13T15:19:49.399Z,18.64
2022-10-13T15:22:16.699Z,18.54
2022-10-13T15:24:43.662Z,18.53
2022-10-13T15:27:10.635Z,18.52
2022-10-13T15:29:37.836Z,18.09
2022-10-13T15:32:23.464Z,18.22
2022-10-13T15:34:54.652Z,18.10
2022-10-13T15:37:25.003Z,18.57
2022-10-13T15:39:57.075Z,18.50
2022-10-13T15:42:24.655Z,18.53
2022-10-13T15:47:39.679Z,18.00
2022-10-13T15:50:07.895Z,17.97
2022-10-13T15:53:01.234Z,17.94
2022-10-13T15:55:49.284Z,17.88
2022-10-13T15:58:17.242Z,17.96
2022-10-13T16:00:44.877Z,17.66
2022-10-13T16:03:16.057Z,17.40
2022-10-13T16:05:46.958Z,17.16
2022-10-13T16:08:14.549Z,17.11
2022-10-13T16:10:44.543Z,17.16
2022-10-13T16:13:15.011Z,17.15
2022-10-13T16:15:43.133Z,17.35
2022-10-13T16:18:10.103Z,17.25
2022-10-13T16:20:37.621Z,17.45
2022-10-13T16:23:05.592Z,17.37
2022-10-13T16:25:32.695Z,17.54
2022-10-13T16:28:00.690Z,17.17
2022-10-13T16:30:30.256Z,16.96
2022-10-13T16:32:58.236Z,17.00
2022-10-13T16:35:25.386Z,16.80
2022-10-13T16:37:52.523Z,16.71
2022-10-13T16:40:19.450Z,16.96
2022-10-13T16:42:46.371Z,16.71
2022-10-13T16:45:13.318Z,16.69
2022-10-13T16:47:40.440Z,16.67
2022-10-13T16:50:09.714Z,16.34
2022-10-13T16:52:37.625Z,16.49
2022-10-13T16:55:05.902Z,16.58
2022-10-13T16:57:33.042Z,16.29
2022-10-13T17:00:00.183Z,16.40
2022-10-13T17:02:28.851Z,16.37
2022-10-13T17:04:55.860Z,16.65
2022-10-13T17:07:22.999Z,16.40
2022-10-13T17:09:50.239Z,16.40
2022-10-13T17:12:18.053Z,16.23
2022-10-13T17:14:44.937Z,16.32
2022-10-13T17:17:11.890Z,16.38
2022-10-13T17:19:38.786Z,16.41
2022-10-13T17:22:06.325Z,16.42
2022-10-13T17:24:33.385Z,16.19
2022-10-13T17:27:00.398Z,16.27
2022-10-13T17:29:27.457Z,16.34
2022-10-13T17:31:55.897Z,16.27
2022-10-13T17:34:22.989Z,16.08
2022-10-13T17:36:51.383Z,16.25
2022-10-13T17:39:18.316Z,16.44
2022-10-13T17:41:45.327Z,16.25
2022-10-13T17:44:12.237Z,16.03
2022-10-13T17:46:39.929Z,16.16
2022-10-13T17:49:10.691Z,16.16
2022-10-13T17:51:37.880Z,16.17
2022-10-13T17:54:05.437Z,16.13
2022-10-13T17:56:33.038Z,16.20
2022-10-13T17:59:02.092Z,16.23
2022-10-13T18:01:34.794Z,16.33
2022-10-13T18:04:23.699Z,16.21
2022-10-13T18:06:50.683Z,16.32
2022-10-13T18:09:21.493Z,16.16
2022-10-13T18:11:50.943Z,16.04
2022-10-13T18:14:20.995Z,16.07
2022-10-13T18:16:50.806Z,16.02
2022-10-13T18:19:17.848Z,15.86
2022-10-13T18:21:44.775Z,16.06
2022-10-13T18:24:12.387Z,16.22
2022-10-13T18:26:40.012Z,16.20
2022-10-13T18:29:09.177Z,16.06
2022-10-13T18:31:38.919Z,16.26
2022-10-13T18:34:10.928Z,16.08
2022-10-13T18:36:51.258Z,16.02
2022-10-13T18:39:22.298Z,15.85
2022-10-13T18:41:50.236Z,15.94
2022-10-13T18:44:17.891Z,16.16
2022-10-13T18:46:45.293Z,16.07
2022-10-13T18:49:15.247Z,16.03
2022-10-13T18:51:43.967Z,16.02
2022-10-13T18:54:11.779Z,15.97
2022-10-13T18:56:38.924Z,15.87
2022-10-13T18:59:08.674Z,16.22
2022-10-13T19:01:37.992Z,16.06
2022-10-13T19:04:06.330Z,16.00
2022-10-13T19:06:34.096Z,16.00
2022-10-13T19:09:08.080Z,16.18
2022-10-13T19:11:37.167Z,16.03
2022-10-13T19:14:07.021Z,16.32
2022-10-13T19:16:38.327Z,16.10
2022-10-13T19:19:05.562Z,16.30
2022-10-13T19:21:32.884Z,16.37
2022-10-13T19:24:00.406Z,16.32
2022-10-13T19:26:32.427Z,16.25
2022-10-13T19:29:06.372Z,16.28
2022-10-13T19:31:35.181Z,16.43
2022-10-13T19:34:08.199Z,16.23
2022-10-13T19:36:40.815Z,16.49
2022-10-13T19:39:21.799Z,16.63
2022-10-13T19:41:51.298Z,16.09
2022-10-13T19:44:19.709Z,15.82
2022-10-13T19:46:48.138Z,16.17
2022-10-13T19:49:17.871Z,15.96
2022-10-13T19:51:46.671Z,15.99
2022-10-13T19:54:14.705Z,16.01
2022-10-13T19:56:47.737Z,16.19
2022-10-13T19:59:16.084Z,15.98
2022-10-13T20:01:43.181Z,16.35
2022-10-13T20:04:14.893Z,16.07
2022-10-13T20:06:43.823Z,16.16
2022-10-13T20:09:10.992Z,16.19
2022-10-13T20:11:38.260Z,16.21
2022-10-13T20:14:05.295Z,16.58
2022-10-13T20:16:32.868Z,16.84
2022-10-13T20:19:00.970Z,16.60
2022-10-13T20:21:29.546Z,16.20
2022-10-13T20:23:56.929Z,16.54
2022-10-13T20:26:24.982Z,16.69
2022-10-13T20:28:54.482Z,16.23
2022-10-13T20:31:22.615Z,16.40
2022-10-13T20:33:55.859Z,16.46
2022-10-13T20:36:24.831Z,16.26
2022-10-13T20:38:52.632Z,16.58
2022-10-13T20:41:26.813Z,16.60
2022-10-13T20:43:56.469Z,16.56
2022-10-13T20:46:24.238Z,16.57
2022-10-13T20:51:41.575Z,16.25
2022-10-13T20:54:10.167Z,16.31
2022-10-13T20:56:37.785Z,16.38
2022-10-13T20:59:08.237Z,16.53
2022-10-13T21:01:35.512Z,16.48
2022-10-13T21:04:02.899Z,16.20
2022-10-13T21:06:30.530Z,16.39
2022-10-13T21:09:00.554Z,16.13
2022-10-13T21:11:27.506Z,15.97
2022-10-13T21:13:54.791Z,16.48
2022-10-13T21:16:27.865Z,16.52
2022-10-13T21:18:56.998Z,16.27
2022-10-13T21:21:27.892Z,16.15
2022-10-13T21:24:07.643Z,16.04
2022-10-13T21:26:36.321Z,16.34
2022-10-13T21:29:03.811Z,16.34
2022-10-13T21:31:31.413Z,16.47
2022-10-13T21:33:59.036Z,16.20
2022-10-13T21:36:30.775Z,16.20
2022-10-13T21:39:02.369Z,16.36
2022-10-13T21:41:29.558Z,16.10
2022-10-13T21:43:56.706Z,16.20
2022-10-13T21:46:30.147Z,16.30
2022-10-13T21:49:05.253Z,16.37
2022-10-13T21:51:38.408Z,16.15
2022-10-13T21:54:12.008Z,16.30
2022-10-13T21:56:40.837Z,16.28
2022-10-13T21:59:10.111Z,16.33
2022-10-13T22:01:37.192Z,16.22
2022-10-13T22:04:11.635Z,16.19
2022-10-13T22:06:38.667Z,16.06
2022-10-13T22:09:07.424Z,16.26
2022-10-13T22:11:37.211Z,16.23
2022-10-13T22:14:11.312Z,16.11
2022-10-13T22:16:44.954Z,16.08
2022-10-13T22:19:13.149Z,15.96
2022-10-13T22:21:49.389Z,16.15
2022-10-13T22:24:21.608Z,16.32
2022-10-13T22:26:50.215Z,16.26
2022-10-13T22:29:21.304Z,16.01
2022-10-13T22:31:49.978Z,16.22
2022-10-13T22:34:18.099Z,16.31
2022-10-13T22:36:45.493Z,16.40
2022-10-13T22:39:13.487Z,16.47
2022-10-13T22:41:41.825Z,16.21
2022-10-13T22:44:09.137Z,16.21
2022-10-13T22:46:38.044Z,16.47
2022-10-13T22:49:06.511Z,16.34
2022-10-13T22:51:36.286Z,16.21
2022-10-13T22:54:05.170Z,16.31
2022-10-13T22:56:33.861Z,16.25
2022-10-13T22:59:08.857Z,16.22
2022-10-13T23:01:36.533Z,16.15
2022-10-13T23:04:04.060Z,16.08
2022-10-13T23:06:34.254Z,16.46
2022-10-13T23:09:08.077Z,16.37
2022-10-13T23:11:36.252Z,16.22
2022-10-13T23:14:05.975Z,16.28
2022-10-13T23:16:33.683Z,16.17
2022-10-13T23:19:00.936Z,16.38
2022-10-13T23:21:30.229Z,16.52
2022-10-13T23:24:05.778Z,16.47
2022-10-13T23:26:34.546Z,16.42
2022-10-13T23:29:01.855Z,16.53
2022-10-13T23:31:29.473Z,16.57
2022-10-13T23:33:56.915Z,16.23
2022-10-13T23:36:27.774Z,16.43
2022-10-13T23:39:06.505Z,16.56
2022-10-13T23:41:34.024Z,16.44
2022-10-13T23:44:01.452Z,16.47
2022-10-13T23:46:28.569Z,16.41
2022-10-13T23:48:55.825Z,16.49
2022-10-13T23:51:25.405Z,16.93
2022-10-13T23:53:53.485Z,16.91
2022-10-13T23:56:20.849Z,16.73
2022-10-13T23:58:48.290Z,16.87
